Time;durP1;ratioP1;P1;durP2;ratioP2;P2;SDS_P1;SDS_P2;PMS_P1;PMS_P2;Temp;Humidity;BMP_temperature;BMP_pressure;BME280_temperature;BME280_humidity;BME280_pressure;Samples;Min_cycle;Max_cycle;Signal;HPM_P1;HPM_P2
2021/10/13 00:00:13;;;;;;;5.90;3.97;;;;;;;;;;5080340;28;20204;-69
2021/10/13 00:02:39;;;;;;;7.73;3.20;;;;;;;;;;5083381;28;20246;-70
2021/10/13 00:05:05;;;;;;;4.97;3.00;;;;;;;;;;5080121;28;20661;-69
2021/10/13 00:07:31;;;;;;;6.47;3.13;;;;;;;;;;5082384;28;20180;-69
2021/10/13 00:09:57;;;;;;;4.57;2.60;;;;;;;;;;5080938;28;20179;-69
2021/10/13 00:12:22;;;;;;;3.97;3.07;;;;;;;;;;5079276;28;20537;-70
2021/10/13 00:14:47;;;;;;;9.83;3.40;;;;;;;;;;5081060;28;20180;-70
2021/10/13 00:17:12;;;;;;;7.37;3.20;;;;;;;;;;5079348;28;20654;-69
2021/10/13 00:19:38;;;;;;;6.27;3.27;;;;;;;;;;5088645;28;20235;-70
2021/10/13 00:22:03;;;;;;;3.87;3.13;;;;;;;;;;5088659;28;20185;-70
2021/10/13 00:24:28;;;;;;;5.63;3.00;;;;;;;;;;5084354;28;20300;-72
2021/10/13 00:26:53;;;;;;;7.27;2.83;;;;;;;;;;5089826;28;20184;-71
2021/10/13 00:29:19;;;;;;;4.63;2.90;;;;;;;;;;5077285;28;20192;-72
2021/10/13 00:31:44;;;;;;;6.13;3.63;;;;;;;;;;5086886;28;20191;-71
2021/10/13 00:34:09;;;;;;;6.27;3.43;;;;;;;;;;5086860;28;20271;-71
2021/10/13 00:36:34;;;;;;;4.93;3.57;;;;;;;;;;5084174;28;20219;-71
2021/10/13 00:38:59;;;;;;;7.33;3.63;;;;;;;;;;5080368;28;20200;-71
2021/10/13 00:41:25;;;;;;;6.53;3.00;;;;;;;;;;5080097;28;20208;-72
2021/10/13 00:43:50;;;;;;;5.90;3.10;;;;;;;;;;5079908;28;20176;-71
2021/10/13 00:46:15;;;;;;;7.07;2.90;;;;;;;;;;5078904;28;20278;-71
2021/10/13 00:48:40;;;;;;;12.27;3.93;;;;;;;;;;5078878;28;20180;-71
2021/10/13 00:51:06;;;;;;;4.60;3.80;;;;;;;;;;5079077;28;20706;-71
2021/10/13 00:53:31;;;;;;;8.03;4.23;;;;;;;;;;5077991;28;20188;-71
2021/10/13 00:55:59;;;;;;;6.90;3.80;;;;;;;;;;5078935;28;20216;-71
2021/10/13 00:58:24;;;;;;;5.87;3.73;;;;;;;;;;5078863;28;20195;-71
2021/10/13 01:00:55;;;;;;;9.30;3.60;;;;;;;;;;5079653;28;20172;-71
2021/10/13 01:03:33;;;;;;;10.73;3.70;;;;;;;;;;5083744;28;20665;-72
2021/10/13 01:06:01;;;;;;;6.53;4.03;;;;;;;;;;5088696;28;20199;-71
2021/10/13 01:08:32;;;;;;;4.97;3.67;;;;;;;;;;5081690;28;20655;-71
2021/10/13 01:11:16;;;;;;;4.43;3.50;;;;;;;;;;5079999;28;20179;-71
2021/10/13 01:14:01;;;;;;;6.60;3.73;;;;;;;;;;5079426;28;20184;-71
2021/10/13 01:16:42;;;;;;;8.47;3.80;;;;;;;;;;5080722;28;20727;-71
2021/10/13 01:19:25;;;;;;;7.80;3.57;;;;;;;;;;5084441;28;20195;-72
2021/10/13 01:22:20;;;;;;;8.73;4.13;;;;;;;;;;5082694;28;20183;-71
2021/10/13 01:24:54;;;;;;;6.37;3.47;;;;;;;;;;5069595;28;20295;-71
2021/10/13 01:27:31;;;;;;;5.73;3.70;;;;;;;;;;5081287;28;20190;-71
2021/10/13 01:29:57;;;;;;;9.83;3.90;;;;;;;;;;5081018;28;20191;-71
2021/10/13 01:32:24;;;;;;;5.60;3.50;;;;;;;;;;5087887;28;20219;-71
2021/10/13 01:34:52;;;;;;;9.43;3.70;;;;;;;;;;5082508;28;20599;-71
2021/10/13 01:37:19;;;;;;;9.60;4.07;;;;;;;;;;5083154;28;20278;-71
2021/10/13 01:39:45;;;;;;;5.20;2.93;;;;;;;;;;5088060;28;20196;-71
2021/10/13 01:42:12;;;;;;;10.67;5.23;;;;;;;;;;5091980;28;20177;-71
2021/10/13 01:44:38;;;;;;;5.80;3.57;;;;;;;;;;5091250;28;20199;-71
2021/10/13 01:47:03;;;;;;;8.37;3.73;;;;;;;;;;5090838;28;21942;-71
2021/10/13 01:49:33;;;;;;;6.00;3.40;;;;;;;;;;5090565;28;20188;-70
2021/10/13 01:51:59;;;;;;;7.83;4.50;;;;;;;;;;5091251;28;20181;-71
2021/10/13 01:54:25;;;;;;;4.80;3.23;;;;;;;;;;5087329;28;20188;-70
2021/10/13 01:56:52;;;;;;;9.67;3.80;;;;;;;;;;5054077;22;20315;-73
2021/10/13 01:59:20;;;;;;;7.37;3.60;;;;;;;;;;5048520;28;20213;-73
2021/10/13 02:01:45;;;;;;;6.17;3.50;;;;;;;;;;5045232;28;20623;-73
2021/10/13 02:04:11;;;;;;;6.47;3.43;;;;;;;;;;5048342;28;20185;-72
2021/10/13 02:06:37;;;;;;;5.00;3.60;;;;;;;;;;5045818;28;20201;-73
2021/10/13 02:09:02;;;;;;;8.93;4.40;;;;;;;;;;5046747;28;20701;-73
2021/10/13 02:11:29;;;;;;;9.33;4.00;;;;;;;;;;5047909;28;20185;-73
2021/10/13 02:13:55;;;;;;;7.07;3.50;;;;;;;;;;5048937;28;20239;-73
2021/10/13 02:16:21;;;;;;;8.40;3.93;;;;;;;;;;5052489;28;20205;-73
2021/10/13 02:18:47;;;;;;;6.17;3.47;;;;;;;;;;5044786;28;20213;-72
2021/10/13 02:21:13;;;;;;;7.73;3.43;;;;;;;;;;5045212;28;20200;-73
2021/10/13 02:23:39;;;;;;;7.37;3.70;;;;;;;;;;5049291;28;20227;-73
2021/10/13 02:26:09;;;;;;;6.37;3.90;;;;;;;;;;5040478;28;20202;-73
2021/10/13 02:28:39;;;;;;;5.30;3.43;;;;;;;;;;5045269;28;20651;-72
2021/10/13 02:31:04;;;;;;;8.40;4.27;;;;;;;;;;5044297;28;20177;-73
2021/10/13 02:33:29;;;;;;;9.53;4.37;;;;;;;;;;5044718;28;20648;-74
2021/10/13 02:35:54;;;;;;;10.47;4.87;;;;;;;;;;5045327;28;20206;-74
2021/10/13 02:38:20;;;;;;;9.80;4.13;;;;;;;;;;5035369;28;20642;-73
2021/10/13 02:40:45;;;;;;;8.20;4.20;;;;;;;;;;5039501;28;20182;-73
2021/10/13 02:43:10;;;;;;;13.87;5.57;;;;;;;;;;5035114;28;20182;-73
2021/10/13 02:45:38;;;;;;;8.03;4.60;;;;;;;;;;5044285;28;20270;-73
2021/10/13 02:48:07;;;;;;;6.57;3.97;;;;;;;;;;5050992;28;20185;-73
2021/10/13 02:50:40;;;;;;;8.73;4.13;;;;;;;;;;5050141;28;20184;-73
2021/10/13 02:53:05;;;;;;;10.80;4.90;;;;;;;;;;5046219;28;20194;-73
2021/10/13 02:55:40;;;;;;;7.03;4.00;;;;;;;;;;5033337;28;20225;-73
2021/10/13 02:58:05;;;;;;;10.97;4.10;;;;;;;;;;5030560;28;20185;-73
2021/10/13 03:00:31;;;;;;;8.32;3.63;;;;;;;;;;5048538;28;20205;-73
2021/10/13 03:03:03;;;;;;;6.17;3.13;;;;;;;;;;5048838;28;20591;-73
2021/10/13 03:05:28;;;;;;;9.77;3.77;;;;;;;;;;5042933;28;20596;-73
2021/10/13 03:07:55;;;;;;;8.10;3.27;;;;;;;;;;5046740;28;20173;-73
2021/10/13 03:10:21;;;;;;;14.00;3.90;;;;;;;;;;5053908;28;20180;-74
2021/10/13 03:12:50;;;;;;;10.40;3.27;;;;;;;;;;5025824;28;20181;-73
2021/10/13 03:15:17;;;;;;;9.93;3.33;;;;;;;;;;5048485;28;20198;-73
2021/10/13 03:17:44;;;;;;;12.27;3.60;;;;;;;;;;5042726;28;20537;-73
2021/10/13 03:20:11;;;;;;;3.87;2.57;;;;;;;;;;5049293;28;20323;-74
2021/10/13 03:22:37;;;;;;;9.07;3.60;;;;;;;;;;5049548;28;20181;-73
2021/10/13 03:25:02;;;;;;;11.03;2.93;;;;;;;;;;5050841;28;20177;-73
2021/10/13 03:27:27;;;;;;;7.57;2.87;;;;;;;;;;5044635;28;20185;-74
2021/10/13 03:29:53;;;;;;;7.63;3.20;;;;;;;;;;5043243;28;20188;-73
2021/10/13 03:32:18;;;;;;;8.43;3.43;;;;;;;;;;5043608;28;20484;-74
2021/10/13 03:34:44;;;;;;;5.90;2.50;;;;;;;;;;5042514;28;20178;-73
2021/10/13 03:37:09;;;;;;;5.67;2.47;;;;;;;;;;5048679;28;20193;-73
2021/10/13 03:39:34;;;;;;;4.40;2.37;;;;;;;;;;5048788;28;20232;-73
2021/10/13 03:42:00;;;;;;;6.60;2.30;;;;;;;;;;5050498;28;20492;-74
2021/10/13 03:44:25;;;;;;;5.40;2.40;;;;;;;;;;5040806;28;20178;-73
2021/10/13 03:46:51;;;;;;;4.20;2.90;;;;;;;;;;5047984;28;20202;-73
2021/10/13 03:49:16;;;;;;;5.57;2.40;;;;;;;;;;5048564;28;20231;-73
2021/10/13 03:51:41;;;;;;;2.97;1.93;;;;;;;;;;5048711;28;20722;-73
2021/10/13 03:54:07;;;;;;;5.60;2.50;;;;;;;;;;5049348;28;20186;-73
2021/10/13 03:56:32;;;;;;;6.00;2.03;;;;;;;;;;5048340;28;20213;-73
2021/10/13 03:58:58;;;;;;;4.27;2.17;;;;;;;;;;5049299;28;20613;-74
2021/10/13 04:01:23;;;;;;;9.77;2.57;;;;;;;;;;5049221;28;20264;-73
2021/10/13 04:03:48;;;;;;;7.90;3.70;;;;;;;;;;5049070;28;20208;-73
2021/10/13 04:06:14;;;;;;;5.60;2.00;;;;;;;;;;5047495;28;20198;-73
2021/10/13 04:08:39;;;;;;;6.07;2.20;;;;;;;;;;5043036;28;20212;-73
2021/10/13 04:11:04;;;;;;;4.60;2.40;;;;;;;;;;5049656;28;20180;-73
2021/10/13 04:13:29;;;;;;;4.30;1.90;;;;;;;;;;5024911;28;20189;-73
2021/10/13 04:15:55;;;;;;;4.93;2.20;;;;;;;;;;5047956;28;20205;-73
2021/10/13 04:18:20;;;;;;;4.13;2.10;;;;;;;;;;5042880;28;20185;-73
2021/10/13 04:20:45;;;;;;;6.47;3.00;;;;;;;;;;5047934;28;20174;-73
2021/10/13 04:23:10;;;;;;;5.33;2.30;;;;;;;;;;5047625;28;20174;-73
2021/10/13 04:25:36;;;;;;;5.50;2.70;;;;;;;;;;5040876;28;20288;-74
2021/10/13 04:28:01;;;;;;;7.87;3.03;;;;;;;;;;5042690;28;20174;-73
2021/10/13 04:30:26;;;;;;;3.97;2.27;;;;;;;;;;5044635;28;20204;-73
2021/10/13 04:32:51;;;;;;;6.70;2.97;;;;;;;;;;5041200;28;20663;-73
2021/10/13 04:35:17;;;;;;;6.07;2.47;;;;;;;;;;5048344;28;20243;-73
2021/10/13 04:37:42;;;;;;;6.37;2.67;;;;;;;;;;5048152;28;20639;-74
2021/10/13 04:40:07;;;;;;;4.93;2.40;;;;;;;;;;5029669;28;20198;-74
2021/10/13 04:42:33;;;;;;;7.87;2.40;;;;;;;;;;5043824;28;20711;-73
2021/10/13 04:44:58;;;;;;;8.57;2.57;;;;;;;;;;5028395;28;20585;-74
2021/10/13 04:47:23;;;;;;;3.57;1.90;;;;;;;;;;5045288;28;20544;-73
2021/10/13 04:49:49;;;;;;;7.70;2.30;;;;;;;;;;5037099;28;20650;-73
2021/10/13 04:52:14;;;;;;;5.60;1.97;;;;;;;;;;5044068;28;20597;-73
2021/10/13 04:54:39;;;;;;;5.63;2.10;;;;;;;;;;5049839;28;20184;-73
2021/10/13 04:57:04;;;;;;;5.00;1.77;;;;;;;;;;5046233;28;20706;-73
2021/10/13 04:59:30;;;;;;;6.17;2.60;;;;;;;;;;5046487;28;20197;-74
2021/10/13 05:01:55;;;;;;;9.17;2.20;;;;;;;;;;5047520;28;20182;-73
2021/10/13 05:04:20;;;;;;;5.30;2.60;;;;;;;;;;5031121;28;20207;-73
2021/10/13 05:06:45;;;;;;;4.23;1.80;;;;;;;;;;5043979;28;20553;-74
2021/10/13 05:09:11;;;;;;;5.90;1.90;;;;;;;;;;5044401;28;20189;-74
2021/10/13 05:11:36;;;;;;;5.80;2.30;;;;;;;;;;5042761;28;20186;-74
2021/10/13 05:14:01;;;;;;;8.83;2.00;;;;;;;;;;5046503;28;20189;-74
2021/10/13 05:16:26;;;;;;;5.77;2.00;;;;;;;;;;5052415;28;20580;-74
2021/10/13 05:18:52;;;;;;;3.00;1.90;;;;;;;;;;5054582;28;20526;-74
2021/10/13 05:21:17;;;;;;;4.33;2.27;;;;;;;;;;5032858;28;20185;-73
2021/10/13 05:23:42;;;;;;;5.37;2.37;;;;;;;;;;5037024;28;20181;-74
2021/10/13 05:26:08;;;;;;;7.87;2.10;;;;;;;;;;5049138;28;20663;-73
2021/10/13 05:28:33;;;;;;;4.00;2.20;;;;;;;;;;5054853;28;20205;-73
2021/10/13 05:30:58;;;;;;;6.00;2.33;;;;;;;;;;5055781;28;20170;-73
2021/10/13 05:33:23;;;;;;;5.90;2.67;;;;;;;;;;5047034;28;20182;-73
2021/10/13 05:35:49;;;;;;;3.83;2.27;;;;;;;;;;5045094;28;20189;-73
2021/10/13 05:38:14;;;;;;;5.43;2.07;;;;;;;;;;5053094;28;20201;-73
2021/10/13 05:40:39;;;;;;;4.63;2.17;;;;;;;;;;5048161;28;20210;-73
2021/10/13 05:43:04;;;;;;;5.97;2.40;;;;;;;;;;5028573;28;20231;-74
2021/10/13 05:45:29;;;;;;;3.63;1.70;;;;;;;;;;5040540;28;20193;-73
2021/10/13 05:47:54;;;;;;;6.57;2.20;;;;;;;;;;5037597;28;20180;-73
2021/10/13 05:50:20;;;;;;;4.47;2.50;;;;;;;;;;5036878;28;20181;-73
2021/10/13 05:52:45;;;;;;;8.63;2.60;;;;;;;;;;5053657;28;20181;-73
2021/10/13 05:55:10;;;;;;;8.07;3.00;;;;;;;;;;5053337;28;20296;-73
2021/10/13 05:57:36;;;;;;;7.40;3.50;;;;;;;;;;5052361;28;20663;-73
2021/10/13 06:00:02;;;;;;;4.63;2.47;;;;;;;;;;5051990;28;20445;-73
2021/10/13 06:02:28;;;;;;;5.40;2.80;;;;;;;;;;5037607;28;20209;-73
2021/10/13 06:04:53;;;;;;;5.17;2.50;;;;;;;;;;5043082;28;20574;-73
2021/10/13 06:07:18;;;;;;;3.30;2.20;;;;;;;;;;5047007;28;20186;-72
2021/10/13 06:09:43;;;;;;;3.03;1.97;;;;;;;;;;5054578;28;20189;-72
2021/10/13 06:12:09;;;;;;;6.63;2.10;;;;;;;;;;5031640;28;20185;-74
2021/10/13 06:14:34;;;;;;;6.03;2.80;;;;;;;;;;5046450;28;20185;-72
2021/10/13 06:16:59;;;;;;;3.83;2.50;;;;;;;;;;5052234;28;20209;-72
2021/10/13 06:19:25;;;;;;;6.07;2.93;;;;;;;;;;5046364;28;20213;-74
2021/10/13 06:21:50;;;;;;;5.33;3.00;;;;;;;;;;5048776;28;20189;-72
2021/10/13 06:24:15;;;;;;;5.17;2.67;;;;;;;;;;5050818;28;20188;-72
2021/10/13 06:26:40;;;;;;;5.30;2.90;;;;;;;;;;5029764;28;20201;-72
2021/10/13 06:29:05;;;;;;;8.17;3.70;;;;;;;;;;5048935;28;20315;-72
2021/10/13 06:31:31;;;;;;;9.33;2.73;;;;;;;;;;5042933;28;20605;-73
2021/10/13 06:33:56;;;;;;;10.87;3.10;;;;;;;;;;5038068;28;20190;-72
2021/10/13 06:36:21;;;;;;;5.63;3.10;;;;;;;;;;5028723;28;20198;-73
2021/10/13 06:38:47;;;;;;;8.03;3.37;;;;;;;;;;5047305;28;20197;-72
2021/10/13 06:41:12;;;;;;;4.83;3.07;;;;;;;;;;5048952;28;20178;-74
2021/10/13 06:43:37;;;;;;;6.90;2.60;;;;;;;;;;5042912;28;20185;-73
2021/10/13 06:46:03;;;;;;;4.77;2.57;;;;;;;;;;5049330;28;20737;-74
2021/10/13 06:48:28;;;;;;;4.53;3.00;;;;;;;;;;5019330;28;20267;-73
2021/10/13 06:50:54;;;;;;;6.37;2.57;;;;;;;;;;5045407;28;20182;-73
2021/10/13 06:53:19;;;;;;;6.53;2.60;;;;;;;;;;5044488;28;20210;-73
2021/10/13 06:55:45;;;;;;;7.33;3.00;;;;;;;;;;5047402;28;20694;-73
2021/10/13 06:58:10;;;;;;;5.87;3.00;;;;;;;;;;5034799;28;20206;-73
2021/10/13 07:00:35;;;;;;;5.03;2.87;;;;;;;;;;5020432;28;20213;-73
2021/10/13 07:03:01;;;;;;;5.17;2.93;;;;;;;;;;5028039;28;20251;-73
2021/10/13 07:05:27;;;;;;;5.13;2.20;;;;;;;;;;5023829;28;20201;-74
2021/10/13 07:07:52;;;;;;;5.03;2.80;;;;;;;;;;5026687;28;20174;-73
2021/10/13 07:10:18;;;;;;;6.53;3.00;;;;;;;;;;5022907;28;20331;-73
2021/10/13 07:12:43;;;;;;;5.27;2.87;;;;;;;;;;5029974;28;20189;-74
2021/10/13 07:15:09;;;;;;;6.07;2.43;;;;;;;;;;5026438;28;20182;-74
2021/10/13 07:17:34;;;;;;;4.10;2.67;;;;;;;;;;5033443;28;20694;-74
2021/10/13 07:20:01;;;;;;;8.60;3.17;;;;;;;;;;5033490;28;20201;-74
2021/10/13 07:22:27;;;;;;;9.00;2.60;;;;;;;;;;5052716;28;20210;-73
2021/10/13 07:24:52;;;;;;;6.57;2.50;;;;;;;;;;5048223;28;20539;-74
2021/10/13 07:27:18;;;;;;;6.23;2.13;;;;;;;;;;5031527;28;20167;-73
2021/10/13 07:29:45;;;;;;;4.90;2.57;;;;;;;;;;5033505;28;20753;-74
2021/10/13 07:32:10;;;;;;;6.87;2.50;;;;;;;;;;5037825;28;20209;-73
2021/10/13 07:34:35;;;;;;;6.40;2.40;;;;;;;;;;5048777;28;20216;-73
2021/10/13 07:37:01;;;;;;;10.93;2.20;;;;;;;;;;5038719;28;20216;-73
2021/10/13 07:39:26;;;;;;;7.67;2.40;;;;;;;;;;5045016;28;20206;-73
2021/10/13 07:41:51;;;;;;;4.40;2.23;;;;;;;;;;5037970;28;20279;-74
2021/10/13 07:44:16;;;;;;;3.67;2.00;;;;;;;;;;5047457;28;20181;-74
2021/10/13 07:46:42;;;;;;;6.83;2.50;;;;;;;;;;5047179;28;20695;-73
2021/10/13 07:49:07;;;;;;;3.20;2.13;;;;;;;;;;5042272;28;20185;-73
2021/10/13 07:51:33;;;;;;;7.30;2.77;;;;;;;;;;5040499;28;20206;-74
2021/10/13 07:53:58;;;;;;;5.50;2.30;;;;;;;;;;5046304;28;20292;-74
2021/10/13 07:56:24;;;;;;;5.47;2.10;;;;;;;;;;5043120;23;20328;-70
2021/10/13 07:58:49;;;;;;;5.03;2.17;;;;;;;;;;5050399;28;20232;-71
2021/10/13 08:01:14;;;;;;;4.60;2.00;;;;;;;;;;5029076;28;20669;-70
2021/10/13 08:03:40;;;;;;;3.43;2.30;;;;;;;;;;5049854;28;20186;-70
2021/10/13 08:06:06;;;;;;;7.30;2.10;;;;;;;;;;5034591;28;20196;-70
2021/10/13 08:08:31;;;;;;;4.13;2.00;;;;;;;;;;5046638;28;20178;-71
2021/10/13 08:10:56;;;;;;;5.47;1.92;;;;;;;;;;5047902;28;20270;-73
2021/10/13 08:13:21;;;;;;;8.88;2.00;;;;;;;;;;5033026;28;20635;-70
2021/10/13 08:15:46;;;;;;;3.97;1.90;;;;;;;;;;5048386;28;20224;-70
2021/10/13 08:18:11;;;;;;;4.05;1.75;;;;;;;;;;5029543;28;20176;-70
2021/10/13 08:20:37;;;;;;;4.25;2.35;;;;;;;;;;5038463;28;20296;-71
2021/10/13 08:23:02;;;;;;;6.85;2.45;;;;;;;;;;5028822;28;20180;-70
2021/10/13 08:25:27;;;;;;;2.67;1.67;;;;;;;;;;5026963;28;20239;-71
2021/10/13 08:27:52;;;;;;;5.00;1.80;;;;;;;;;;5025862;28;20178;-70
2021/10/13 08:30:17;;;;;;;5.63;2.20;;;;;;;;;;5026145;28;20276;-70
2021/10/13 08:32:43;;;;;;;3.75;1.58;;;;;;;;;;5026511;28;20178;-71
2021/10/13 08:35:08;;;;;;;6.97;2.40;;;;;;;;;;5025127;28;20372;-71
2021/10/13 08:37:33;;;;;;;6.43;1.93;;;;;;;;;;5024930;28;20189;-71
2021/10/13 08:39:59;;;;;;;7.07;1.67;;;;;;;;;;5027935;28;20228;-71
2021/10/13 08:42:25;;;;;;;7.25;1.50;;;;;;;;;;5029946;28;20658;-71
2021/10/13 08:44:51;;;;;;;3.53;1.53;;;;;;;;;;5024612;28;20214;-71
2021/10/13 08:47:17;;;;;;;3.75;1.58;;;;;;;;;;5029194;28;20205;-71
2021/10/13 08:49:42;;;;;;;4.90;2.17;;;;;;;;;;5026067;28;20308;-71
2021/10/13 08:52:08;;;;;;;4.03;1.70;;;;;;;;;;5026646;28;20185;-71
2021/10/13 08:54:33;;;;;;;5.60;1.88;;;;;;;;;;5025035;28;20272;-71
2021/10/13 08:56:58;;;;;;;3.13;1.52;;;;;;;;;;5030534;28;20243;-71
2021/10/13 08:59:40;;;;;;;4.10;1.30;;;;;;;;;;5024697;28;20241;-71
2021/10/13 09:02:06;;;;;;;4.00;1.37;;;;;;;;;;5023587;28;20173;-71
2021/10/13 09:04:31;;;;;;;3.87;1.43;;;;;;;;;;5025839;28;20184;-71
2021/10/13 09:07:02;;;;;;;6.63;2.20;;;;;;;;;;5025004;28;20194;-70
2021/10/13 09:09:27;;;;;;;5.40;1.70;;;;;;;;;;5026093;28;20308;-71
2021/10/13 09:11:52;;;;;;;5.32;1.42;;;;;;;;;;5026285;28;20268;-71
2021/10/13 09:14:28;;;;;;;2.95;1.23;;;;;;;;;;5024756;28;20216;-71
2021/10/13 09:16:56;;;;;;;3.83;1.00;;;;;;;;;;5027146;28;20296;-71
2021/10/13 09:19:25;;;;;;;3.72;1.27;;;;;;;;;;5028500;28;20229;-71
2021/10/13 09:21:54;;;;;;;5.15;1.15;;;;;;;;;;5031286;28;20511;-71
2021/10/13 09:24:20;;;;;;;2.72;1.15;;;;;;;;;;5029864;28;20177;-71
2021/10/13 09:26:48;;;;;;;2.72;1.40;;;;;;;;;;5026012;28;20515;-71
2021/10/13 09:29:13;;;;;;;4.20;1.88;;;;;;;;;;5025065;28;20185;-72
2021/10/13 09:31:39;;;;;;;4.63;1.27;;;;;;;;;;5006964;28;21171;-71
2021/10/13 09:34:09;;;;;;;3.08;1.50;;;;;;;;;;5025851;28;20566;-71
2021/10/13 09:36:37;;;;;;;3.88;1.15;;;;;;;;;;5029050;28;20197;-71
2021/10/13 09:39:05;;;;;;;2.25;0.90;;;;;;;;;;5023778;28;20566;-72
2021/10/13 09:41:30;;;;;;;3.95;1.00;;;;;;;;;;5025965;28;20318;-71
2021/10/13 09:44:11;;;;;;;4.60;1.30;;;;;;;;;;5030680;28;20639;-71
2021/10/13 09:46:36;;;;;;;3.53;1.30;;;;;;;;;;5028334;28;20216;-71
2021/10/13 09:49:01;;;;;;;4.07;0.90;;;;;;;;;;5014092;28;20453;-71
2021/10/13 09:51:26;;;;;;;2.30;1.02;;;;;;;;;;5023389;28;20231;-71
2021/10/13 09:53:54;;;;;;;5.70;1.20;;;;;;;;;;5025541;28;20181;-70
2021/10/13 09:56:29;;;;;;;5.07;1.00;;;;;;;;;;5009522;28;21829;-71
2021/10/13 09:59:06;;;;;;;2.80;1.60;;;;;;;;;;5027606;28;20211;-71
2021/10/13 10:01:32;;;;;;;2.03;0.70;;;;;;;;;;5028221;28;20316;-71
2021/10/13 10:03:57;;;;;;;2.60;0.57;;;;;;;;;;5028195;28;20670;-72
2021/10/13 10:06:27;;;;;;;2.63;0.90;;;;;;;;;;5027967;28;20197;-71
2021/10/13 10:08:56;;;;;;;1.88;0.70;;;;;;;;;;5032245;28;20919;-71
2021/10/13 10:11:28;;;;;;;4.35;1.50;;;;;;;;;;5027375;28;20692;-71
2021/10/13 10:13:54;;;;;;;2.40;0.93;;;;;;;;;;5029777;28;20173;-71
2021/10/13 10:16:27;;;;;;;5.75;0.80;;;;;;;;;;5027786;28;20219;-71
2021/10/13 10:18:52;;;;;;;5.53;1.02;;;;;;;;;;5031448;28;20584;-71
2021/10/13 10:21:26;;;;;;;2.72;0.80;;;;;;;;;;5030274;28;20185;-71
2021/10/13 10:23:52;;;;;;;1.58;0.68;;;;;;;;;;5030435;28;20181;-71
2021/10/13 10:26:26;;;;;;;4.32;0.80;;;;;;;;;;5027910;28;20203;-71
2021/10/13 10:28:54;;;;;;;2.13;0.47;;;;;;;;;;5032383;28;20176;-71
2021/10/13 10:31:29;;;;;;;2.53;0.77;;;;;;;;;;5029505;28;20189;-71
2021/10/13 10:34:03;;;;;;;3.42;0.88;;;;;;;;;;5029434;28;20246;-71
2021/10/13 10:36:48;;;;;;;3.03;0.70;;;;;;;;;;5027067;28;20200;-71
2021/10/13 10:39:16;;;;;;;1.15;0.50;;;;;;;;;;5016121;28;20775;-71
2021/10/13 10:41:42;;;;;;;3.13;0.70;;;;;;;;;;5024032;28;20647;-71
2021/10/13 10:44:29;;;;;;;2.75;0.73;;;;;;;;;;5034314;28;20177;-71
2021/10/13 10:46:59;;;;;;;3.50;0.60;;;;;;;;;;5025091;28;20227;-71
2021/10/13 10:49:42;;;;;;;3.58;0.70;;;;;;;;;;5028420;28;20184;-71
2021/10/13 10:52:08;;;;;;;1.98;0.55;;;;;;;;;;5030263;28;20236;-71
2021/10/13 10:54:33;;;;;;;3.33;0.70;;;;;;;;;;5028215;28;20182;-71
2021/10/13 10:56:58;;;;;;;4.43;0.70;;;;;;;;;;5032224;28;20223;-71
2021/10/13 10:59:37;;;;;;;2.45;0.50;;;;;;;;;;5009140;28;20301;-71
2021/10/13 11:02:09;;;;;;;3.47;0.80;;;;;;;;;;5031044;28;20177;-70
2021/10/13 11:04:35;;;;;;;2.08;0.40;;;;;;;;;;5029811;28;20180;-71
2021/10/13 11:07:01;;;;;;;4.82;0.75;;;;;;;;;;5028661;28;20193;-71
2021/10/13 11:09:26;;;;;;;1.90;0.60;;;;;;;;;;5029798;28;20241;-71
2021/10/13 11:11:51;;;;;;;1.88;0.63;;;;;;;;;;5025882;28;20177;-70
2021/10/13 11:14:26;;;;;;;3.40;0.65;;;;;;;;;;5029926;28;20251;-71
2021/10/13 11:16:57;;;;;;;6.72;1.80;;;;;;;;;;5029083;28;20205;-71
2021/10/13 11:19:32;;;;;;;2.00;0.75;;;;;;;;;;5035301;28;20212;-71
2021/10/13 11:22:00;;;;;;;3.13;0.90;;;;;;;;;;5030356;28;21093;-71
2021/10/13 11:24:25;;;;;;;1.90;0.80;;;;;;;;;;5027215;28;20278;-71
2021/10/13 11:26:51;;;;;;;4.13;0.73;;;;;;;;;;5029229;28;20221;-71
2021/10/13 11:29:17;;;;;;;3.03;0.80;;;;;;;;;;5042210;28;20186;-71
2021/10/13 11:31:42;;;;;;;3.90;0.85;;;;;;;;;;5033829;28;20200;-71
2021/10/13 11:34:08;;;;;;;4.32;0.60;;;;;;;;;;5028793;28;20198;-71
2021/10/13 11:36:45;;;;;;;2.30;1.13;;;;;;;;;;5031041;28;20293;-71
2021/10/13 11:39:16;;;;;;;2.05;0.75;;;;;;;;;;5033336;28;20974;-71
2021/10/13 11:41:42;;;;;;;1.85;0.68;;;;;;;;;;5029688;28;20205;-71
2021/10/13 11:44:07;;;;;;;2.88;0.93;;;;;;;;;;5030093;28;20260;-71
2021/10/13 11:46:32;;;;;;;4.68;1.08;;;;;;;;;;5030136;28;20273;-71
2021/10/13 11:49:01;;;;;;;1.85;0.70;;;;;;;;;;5035770;28;20250;-71
2021/10/13 11:51:26;;;;;;;5.70;1.30;;;;;;;;;;5029486;28;20191;-71
2021/10/13 11:53:51;;;;;;;3.87;0.93;;;;;;;;;;5026070;28;20181;-71
2021/10/13 11:56:20;;;;;;;3.27;1.00;;;;;;;;;;5026792;28;21140;-71
2021/10/13 11:58:45;;;;;;;9.50;1.80;;;;;;;;;;5034264;28;20524;-71
2021/10/13 12:01:14;;;;;;;4.73;1.73;;;;;;;;;;5025639;28;20799;-71
2021/10/13 12:03:40;;;;;;;5.03;1.00;;;;;;;;;;5028691;28;21000;-71
2021/10/13 12:06:05;;;;;;;2.97;0.90;;;;;;;;;;5026480;28;20209;-71
2021/10/13 12:08:38;;;;;;;3.30;0.90;;;;;;;;;;5028968;28;20312;-72
2021/10/13 12:11:03;;;;;;;5.70;0.90;;;;;;;;;;5025341;28;20643;-71
2021/10/13 12:13:29;;;;;;;6.28;1.00;;;;;;;;;;5027641;28;20185;-69
2021/10/13 12:16:00;;;;;;;4.22;0.82;;;;;;;;;;5027850;28;20790;-70
2021/10/13 12:18:27;;;;;;;6.32;1.10;;;;;;;;;;5033436;28;20265;-70
2021/10/13 12:21:18;;;;;;;2.65;0.80;;;;;;;;;;5027954;28;20209;-70
2021/10/13 12:23:48;;;;;;;5.03;1.00;;;;;;;;;;5022528;28;20190;-70
2021/10/13 12:26:20;;;;;;;2.00;0.93;;;;;;;;;;5026834;28;20196;-71
2021/10/13 12:28:46;;;;;;;2.05;0.95;;;;;;;;;;5030463;28;20182;-70
2021/10/13 12:31:13;;;;;;;4.45;1.10;;;;;;;;;;5027765;28;20690;-70
2021/10/13 12:33:38;;;;;;;4.30;1.40;;;;;;;;;;5027690;28;20294;-69
2021/10/13 12:36:22;;;;;;;2.80;0.88;;;;;;;;;;5027216;28;20212;-70
2021/10/13 12:38:53;;;;;;;4.88;1.00;;;;;;;;;;5024432;28;20545;-70
2021/10/13 12:41:19;;;;;;;4.22;0.90;;;;;;;;;;5025380;28;20178;-70
2021/10/13 12:43:48;;;;;;;2.72;0.88;;;;;;;;;;5010582;28;20178;-70
2021/10/13 12:46:24;;;;;;;6.28;1.33;;;;;;;;;;5026930;28;20209;-70
2021/10/13 12:48:49;;;;;;;9.02;1.42;;;;;;;;;;5027727;28;20752;-70
2021/10/13 12:51:17;;;;;;;3.67;1.20;;;;;;;;;;5025950;28;20178;-70
2021/10/13 12:53:44;;;;;;;6.00;1.00;;;;;;;;;;5025161;28;20213;-70
2021/10/13 12:56:09;;;;;;;6.82;1.38;;;;;;;;;;5031089;28;20399;-70
2021/10/13 12:58:35;;;;;;;5.80;1.20;;;;;;;;;;5031288;28;20648;-70
2021/10/13 13:01:00;;;;;;;3.10;0.95;;;;;;;;;;5026504;28;20667;-70
2021/10/13 13:03:25;;;;;;;3.15;1.00;;;;;;;;;;5025764;28;20177;-70
2021/10/13 13:05:51;;;;;;;8.13;1.45;;;;;;;;;;5013745;28;20197;-70
2021/10/13 13:08:17;;;;;;;2.60;0.75;;;;;;;;;;5026490;28;20205;-70
2021/10/13 13:10:42;;;;;;;4.32;1.15;;;;;;;;;;5028449;28;20215;-70
2021/10/13 13:13:07;;;;;;;2.53;0.90;;;;;;;;;;5024965;28;20809;-70
2021/10/13 13:15:32;;;;;;;2.72;0.80;;;;;;;;;;5027877;28;20205;-70
2021/10/13 13:17:58;;;;;;;3.37;0.90;;;;;;;;;;5015874;28;20189;-70
2021/10/13 13:20:23;;;;;;;3.03;0.95;;;;;;;;;;5028590;28;20846;-69
2021/10/13 13:22:48;;;;;;;5.00;1.10;;;;;;;;;;5036336;28;20592;-70
2021/10/13 13:25:13;;;;;;;2.33;0.80;;;;;;;;;;5026765;28;20430;-70
2021/10/13 13:27:38;;;;;;;4.47;1.13;;;;;;;;;;5027305;28;20925;-70
2021/10/13 13:30:04;;;;;;;2.00;0.50;;;;;;;;;;5007186;28;20201;-70
2021/10/13 13:32:32;;;;;;;7.07;0.95;;;;;;;;;;5025987;28;20433;-70
2021/10/13 13:34:57;;;;;;;1.77;0.70;;;;;;;;;;5007486;28;20201;-70
2021/10/13 13:37:22;;;;;;;3.90;0.80;;;;;;;;;;5032291;28;20678;-70
2021/10/13 13:39:48;;;;;;;4.97;0.80;;;;;;;;;;5039794;28;20194;-70
2021/10/13 13:42:13;;;;;;;2.80;0.80;;;;;;;;;;5041708;28;20190;-70
2021/10/13 13:44:38;;;;;;;4.00;1.00;;;;;;;;;;5031434;28;20423;-70
2021/10/13 13:47:03;;;;;;;1.27;0.68;;;;;;;;;;5030312;28;20918;-70
2021/10/13 13:49:28;;;;;;;6.47;0.95;;;;;;;;;;5029137;28;20224;-70
2021/10/13 13:51:53;;;;;;;2.60;0.90;;;;;;;;;;5016347;28;20174;-70
2021/10/13 13:54:19;;;;;;;2.73;1.10;;;;;;;;;;5029841;28;20792;-70
2021/10/13 13:56:44;;;;;;;1.40;0.70;;;;;;;;;;5052061;23;20508;-72
2021/10/13 13:59:09;;;;;;;5.35;1.58;;;;;;;;;;5055235;28;20196;-72
2021/10/13 14:01:34;;;;;;;2.70;0.70;;;;;;;;;;5038557;28;20180;-73
2021/10/13 14:04:00;;;;;;;2.83;0.80;;;;;;;;;;5053050;28;20180;-74
2021/10/13 14:06:25;;;;;;;3.50;0.80;;;;;;;;;;5053538;28;20201;-71
2021/10/13 14:08:50;;;;;;;3.15;0.88;;;;;;;;;;5051182;28;20286;-73
2021/10/13 14:11:15;;;;;;;3.45;0.82;;;;;;;;;;5049548;28;20192;-73
2021/10/13 14:13:40;;;;;;;1.10;0.52;;;;;;;;;;5053355;28;21492;-71
2021/10/13 14:16:06;;;;;;;3.00;0.60;;;;;;;;;;5052038;28;20193;-71
2021/10/13 14:18:31;;;;;;;3.70;0.68;;;;;;;;;;5035060;28;20833;-72
2021/10/13 14:20:56;;;;;;;4.70;0.70;;;;;;;;;;5053645;28;20236;-71
2021/10/13 14:23:21;;;;;;;4.63;0.82;;;;;;;;;;5051888;28;20177;-73
2021/10/13 14:25:46;;;;;;;2.03;0.70;;;;;;;;;;5052813;28;20205;-73
2021/10/13 14:28:12;;;;;;;4.85;0.70;;;;;;;;;;5038300;28;20188;-73
2021/10/13 14:30:37;;;;;;;3.05;0.80;;;;;;;;;;5051512;28;20193;-73
2021/10/13 14:33:02;;;;;;;5.47;0.60;;;;;;;;;;5054003;28;20570;-73
2021/10/13 14:35:27;;;;;;;4.60;0.70;;;;;;;;;;5052546;28;20226;-73
2021/10/13 14:37:52;;;;;;;2.65;0.90;;;;;;;;;;5051696;28;20197;-72
2021/10/13 14:40:19;;;;;;;3.97;0.80;;;;;;;;;;5052067;28;20322;-73